St. George, Utah Weather observations

Data are for observation ending at time listed.
 Day   Time    Ave.   Ave.  Ave.  Vector   Max.   Stn.    Total    Solar   Ave.  
  of    of     Air    Rel.  Wind   Wind    Wind   Baro.  Precip.   Rad.    Soil  
Year   Day     Temp.  Hum.  Speed  Dir.    Gust   Pres.                    Temp. 
2014   (MST)    F      %     mph   deg.    mph     mb.     in.     W/m2     F   
------------------------------------------------------------------------------
 262   11:30   89.1    25    1.0   193      3.7   918.0    0.00     753    78.7
 262   11:40   89.6    25    0.9   286      2.6   917.9    0.00     766    78.8
 262   11:50   90.2    25    0.7   260      3.5   917.8    0.00     773    78.8
 262   12:00   91.3    23    0.2    24      2.0   917.7    0.00     780    78.8
 262   12:10   92.7    22    0.4   301      4.8   917.7    0.00     779    78.9
 262   12:20   91.8    22    1.5   227      5.4   917.6    0.00     798    79.0
 262   12:30   91.1    23    2.5   188      7.5   917.4    0.00     790    79.1
 262   12:40   91.4    23    1.4   228      5.0   917.3    0.00     789    79.2
 262   12:50   91.5    23    2.2   228      7.5   917.2    0.00     784    79.3
 262   13:00   92.2    23    1.6   243      6.0   917.0    0.00     788    79.5
 262   13:10   92.5    23    2.5   235      6.9   916.9    0.00     783    79.6
 262   13:20   92.7    24    1.1   216      4.5   916.8    0.00     776    79.8
 262   13:30   92.1    24    2.0   223      6.0   916.7    0.00     763    80.0
 262   13:40   92.0    24    1.1   242      6.0   916.5    0.00     766    80.2
 262   13:50   92.8    23    2.7   207      7.7   916.4    0.00     760    80.4
 262   14:00   92.9    23    2.8   318      6.6   916.3    0.00     743    80.6
 262   14:10   93.0    23    1.5   271      5.5   916.2    0.00     732    80.8
 262   14:20   93.7    22    1.2   300      5.3   916.1    0.00     704    81.0
 262   14:30   93.8    22    0.3    49      2.5   916.0    0.00     698    81.2
 262   14:40   94.1    22    2.4   324      8.6   916.0    0.00     681    81.5
 262   14:50   94.3    22    1.2   213      5.8   915.9    0.00     668    81.7
 262   15:00   94.3    21    2.3   270      9.0   915.7    0.00     648    81.9
 262   15:10   94.0    22    2.7   340      8.8   915.7    0.00     636    82.1
 262   15:20   93.8    22    2.0   231      6.4   915.6    0.00     213    82.4
 262   15:30   92.1    22    1.9   206      5.2   915.6    0.00     185    82.6
 262   15:40   92.6    22    3.3   207      6.2   915.5    0.00     146    82.8
 262   15:50   92.0    22    3.4   237      7.5   915.4    0.00     294    83.0
 262   16:00   93.4    21    3.2   247      7.0   915.4    0.00     451    83.2
 262   16:10   95.1    21    1.9   260      6.9   915.4    0.00     305    83.3
 262   16:20   93.0    22    2.3   287      7.2   915.4    0.00     212    83.5
 262   16:30   94.0    21    3.9   243      8.8   915.4    0.00     397    83.6
 262   16:40   94.7    21    3.8   241      9.5   915.4    0.00     367    83.7
 262   16:50   94.4    20    3.2   237      9.9   915.4    0.00     335    83.8
 262   17:00   94.3    21    4.8   233      9.0   915.4    0.00     302    83.8
 262   17:10   94.0    21    3.6   235      7.3   915.4    0.00     269    83.9
 262   17:20   94.1    21    4.0   235     10.0   915.4    0.00     236    84.0
 262   17:30   93.4    21    4.2   238      9.2   915.4    0.00     204    84.1
 262   17:40   92.6    22    3.1   256      7.6   915.4    0.00     153    84.1
 262   17:50   92.0    22    3.3   239      8.5   915.4    0.00      35    84.2
 262   18:00   91.7    22    4.5   232      8.3   915.4    0.00      23    84.3
 262   18:10   91.4    22    4.5   238     10.4   915.5    0.00      19    84.3
 262   18:20   90.9    22    5.4   232     10.8   915.5    0.00      15    84.2
 262   18:30   90.5    22    3.5   237      7.7   915.5    0.00       9    84.2
 262   18:40   89.9    22    2.8   243      7.4   915.6    0.00       5    84.2
 262   18:50   89.7    22    2.5   240      6.4   915.7    0.00       3    84.1
 262   19:00   89.3    22    2.4   244      6.8   915.8    0.00       2    84.1
 262   19:10   89.0    22    3.2   242      9.1   916.0    0.00       0    84.1
 262   19:20   88.6    22    2.4   254      6.1   916.0    0.00       0    84.0
 262   19:30   88.0    22    1.4   264      4.7   916.1    0.00       0    84.0
 262   19:40   87.2    24    0.9   290      4.3   916.3    0.00       0    83.9
 262   19:50   86.5    24    0.8   275      3.3   916.4    0.00       0    83.9
 262   20:00   86.0    25    0.6   242      2.5   916.5    0.00       0    83.8
 262   20:10   85.1    26    0.6   257      1.8   916.6    0.00       0    83.7
 262   20:20   84.6    26    0.5   298      1.7   916.6    0.00       0    83.6
 262   20:30   83.5    29    0.0     0      0.0   916.8    0.00       0    83.6
 262   20:40   82.3    30    0.0     0      0.0   917.0    0.00       0    83.5
 262   20:50   82.1    30    0.1   262      0.9   917.1    0.00       0    83.4
 262   21:00   82.6    30    0.0   257      0.9   917.2    0.00       0    83.3
 262   21:10   82.2    31    0.1   244      0.9   917.2    0.00       0    83.3
 262   21:20   81.5    32    0.1   228      0.7   917.2    0.00       0    83.2
 262   21:30   80.9    32    0.1   204      0.8   917.2    0.00       0    83.1
 262   21:40   80.8    32    0.0    23      0.6   917.3    0.00       0    83.0
 262   21:50   80.5    32    0.1   350      1.5   917.3    0.00       0    83.0
 262   22:00   81.5    29    1.0   271      3.5   917.3    0.00       0    82.9
 262   22:10   82.1    28    0.4   276      1.9   917.3    0.00       0    82.8
 262   22:20   81.9    28    0.7   302      2.5   917.4    0.00       0    82.7
 262   22:30   81.3    30    1.1   225      2.0   917.6    0.00       0    82.7
 262   22:40   80.3    31    0.0   151      0.6   917.7    0.00       0    82.6
 262   22:50   79.0    35    0.2   100      1.3   917.8    0.00       0    82.6
 262   23:00   78.1    36    0.3   352      1.1   917.9    0.00       0    82.5
 262   23:10   77.9    36    0.1   348      0.9   918.0    0.00       0    82.5
 262   23:20   77.6    37    0.6    32      1.3   918.1    0.00       0    82.4
 262   23:30   77.6    38    0.8    12      1.4   918.1    0.00       0    82.3
 262   23:40   76.8    40    0.2    62      1.0   918.0    0.00       0    82.2
 262   23:50   76.6    40    0.5     8      1.8   918.1    0.00       0    82.1
 263    0:00   76.5    40    0.1    35      0.7   918.2    0.00       0    82.0
 263    0:10   76.4    39    0.2    33      0.9   918.3    0.00       0    82.0
 263    0:20   76.2    39    0.4    27      1.1   918.4    0.00       0    81.9
 263    0:30   76.2    41    0.8    82      1.8   918.4    0.00       0    81.8
 263    0:40   76.5    41    0.5   214      1.4   918.6    0.00       0    81.8
 263    0:50   76.3    40    1.4   332      3.3   918.7    0.00       0    81.7
 263    1:00   75.7    42    0.7    39      2.6   918.8    0.00       0    81.6
 263    1:10   75.2    41    1.0   282      2.6   918.9    0.00       0    81.5
 263    1:20   74.6    42    0.1   192      1.2   919.0    0.00       0    81.5
 263    1:30   74.2    43    1.0   357      3.2   919.0    0.00       0    81.4
 263    1:40   75.0    40    0.8    26      2.4   919.0    0.00       0    81.3
 263    1:50   74.6    41    0.5   267      2.1   918.9    0.00       0    81.2
 263    2:00   73.9    42    0.2   201      1.2   919.0    0.00       0    81.2
 263    2:10   73.3    44    0.5   213      1.6   919.1    0.00       0    81.1
 263    2:20   73.0    46    0.5   349      1.8   919.1    0.00       0    81.0
 263    2:30   73.0    46    1.1   334      1.8   919.1    0.00       0    80.9
 263    2:40   72.7    47    0.2   306      1.4   919.1    0.00       0    80.9
 263    2:50   72.3    48    0.5   355      1.2   919.1    0.00       0    80.8
 263    3:00   72.0    48    0.3   352      1.2   919.0    0.00       0    80.7
 263    3:10   71.9    63    0.2     5      0.8   918.9    0.00       0    80.6
 263    3:20   70.9    55    0.0     0      0.0   919.0    0.00       0    80.5
 263    3:30   70.9    50    0.5   253      1.6   919.1    0.00       0    80.5
 263    3:40   71.1    50    0.1   225      0.9   919.1    0.00       0    80.4
 263    3:50   70.8    53    0.7    98      1.8   919.2    0.00       0    80.3
 263    4:00   70.9    53    0.2   292      1.1   919.2    0.00       0    80.2
 263    4:10   70.4    56    0.6     5      1.2   919.1    0.00       0    80.1
 263    4:20   70.1    55    0.8   326      2.3   919.1    0.00       0    80.0
 263    4:30   69.9    55    0.2   303      1.2   919.2    0.00       0    80.0
 263    4:40   69.9    55    0.9   354      1.6   919.2    0.00       0    79.9
 263    4:50   69.9    58    0.4    13      1.1   919.2    0.00       0    79.8
 263    5:00   69.6    57    0.3   255      1.2   919.3    0.00       0    79.7
 263    5:10   69.3    57    0.1   317      0.7   919.4    0.00       0    79.6
 263    5:20   68.8    58    0.0   217      0.8   919.4    0.00       0    79.5
 263    5:30   68.6    60    0.5    35      1.3   919.5    0.00       0    79.5
 263    5:40   68.5    59    0.6   232      2.2   919.6    0.00       0    79.4
 263    5:50   68.5    60    0.3     4      1.0   919.7    0.00       0    79.3
 263    6:00   68.2    62    0.1     4      0.9   919.8    0.00       0    79.2
 263    6:10   68.1    61    0.1   359      0.6   919.9    0.00       0    79.1
 263    6:20   67.9    61    0.1   318      0.8   920.0    0.00       0    79.0
 263    6:30   68.0    62    0.5   330      1.2   920.1    0.00       5    79.0
 263    6:40   67.9    61    0.2   188      0.8   920.3    0.00       7    78.9
 263    6:50   68.0    61    0.6   316      1.6   920.4    0.00      12    78.8
 263    7:00   68.5    60    0.5   334      1.4   920.6    0.00      17    78.7
 263    7:10   68.9    61    0.0     0      0.0   920.6    0.00      24    78.6
 263    7:20   70.4    57    0.3   256      1.0   920.7    0.00      25    78.5
 263    7:30   71.2    55    0.8   229      1.2   920.7    0.00      28    78.5
 263    7:40   71.6    54    0.5   227      1.2   920.8    0.00      50    78.4
 263    7:50   72.2    51    0.3   230      0.9   920.8    0.00     207    78.3
 263    8:00   72.9    51    1.2   187      3.9   920.8    0.00     236    78.3
 263    8:10   73.1    51    0.7   168      1.7   920.8    0.00     268    78.2
 263    8:20   74.7    45    0.9   147      1.8   920.9    0.00     299    78.2
 263    8:30   76.9    37    1.5   142      3.4   920.9    0.00     331    78.1
 263    8:40   77.4    34    1.4   169      3.2   921.0    0.00     363    78.1
 263    8:50   77.5    34    1.2   182      3.3   921.0    0.00     395    78.1
 263    9:00   77.8    34    1.4   192      3.7   921.0    0.00     426    78.1
 263    9:10   78.8    32    1.2   158      2.7   921.0    0.00     456    78.0
 263    9:20   80.3    31    0.6   154      2.7   921.0    0.00     490    78.0
 263    9:30   81.1    31    0.5   177      2.2   921.0    0.00     500    77.9
 263    9:40   81.6    29    1.1   278      2.8   920.9    0.00     552    77.9
 263    9:50   81.3    30    1.4   313      2.9   920.9    0.00     567    77.9
 263   10:00   81.8    29    1.8   165      4.2   920.9    0.00     588    77.9
 263   10:10   82.7    27    0.7   193      2.0   920.9    0.00     610    77.9
 263   10:20   83.5    27    1.4   178      4.6   920.9    0.00     632    77.9
 263   10:30   83.3    27    1.8   208      3.7   920.8    0.00     655    77.9
 263   10:40   83.7    28    1.1    84      3.4   920.7    0.00     677    77.9
 263   10:50   84.9    25    0.8   313      2.9   920.5    0.00     694    77.8
 263   11:00   86.3    25    0.7   204      2.8   920.4    0.00     712    77.8
 263   11:10   87.6    24    0.3   297      2.0   920.2    0.00     722    77.8
 263   11:20   87.2    24    1.1   197      2.9   920.0    0.00     735    77.8

Return to St. George, Utah graphs page.


Western Regional Climate Center,wrcc@dri.edu